Time;durP1;ratioP1;P1;durP2;ratioP2;P2;SDS_P1;SDS_P2;PMS_P1;PMS_P2;Temp;Humidity;BMP_temperature;BMP_pressure;BME280_temperature;BME280_humidity;BME280_pressure;Samples;Min_cycle;Max_cycle;Signal;HPM_P1;HPM_P2
2023/05/17 00:01:37;;;;;;;20.52;7.18;;;;;;;;;;4437769;32;19941;-75
2023/05/17 00:04:02;;;;;;;20.17;7.62;;;;;;;;;;4436525;32;20424;-74
2023/05/17 00:06:27;;;;;;;28.55;7.40;;;;;;;;;;4437755;32;20432;-75
2023/05/17 00:08:53;;;;;;;20.37;7.15;;;;;;;;;;4437341;32;20061;-75
2023/05/17 00:11:18;;;;;;;;;;;;;;;;;;4437143;32;20134;-74
2023/05/17 00:13:43;;;;;;;24.40;7.68;;;;;;;;;;4436412;32;20340;-75
2023/05/17 00:16:08;;;;;;;22.90;7.12;;;;;;;;;;4435278;32;20029;-76
2023/05/17 00:18:33;;;;;;;20.83;7.22;;;;;;;;;;4436521;32;20030;-76
2023/05/17 00:20:58;;;;;;;;;;;;;;;;;;4436064;32;20034;-76
2023/05/17 00:23:24;;;;;;;31.35;7.15;;;;;;;;;;4435370;32;20317;-76
2023/05/17 00:25:49;;;;;;;18.77;6.25;;;;;;;;;;4436956;32;20158;-76
2023/05/17 00:28:15;;;;;;;;;;;;;;;;;;4436318;32;20438;-77
2023/05/17 00:30:40;;;;;;;18.95;7.15;;;;;;;;;;4435915;32;19949;-76
2023/05/17 00:33:05;;;;;;;;;;;;;;;;;;4437754;32;20029;-76
2023/05/17 00:35:30;;;;;;;24.12;6.78;;;;;;;;;;4435999;32;19947;-76
2023/05/17 00:37:55;;;;;;;;;;;;;;;;;;4436235;32;20136;-76
2023/05/17 00:40:21;;;;;;;30.95;6.15;;;;;;;;;;4437734;32;20262;-76
2023/05/17 00:42:46;;;;;;;24.87;8.50;;;;;;;;;;4440384;32;20029;-76
2023/05/17 00:45:11;;;;;;;30.42;7.18;;;;;;;;;;4441780;32;20034;-76
2023/05/17 00:47:36;;;;;;;21.12;6.78;;;;;;;;;;4436673;32;20049;-76
2023/05/17 00:50:01;;;;;;;;;;;;;;;;;;4437547;32;20106;-76
2023/05/17 00:52:27;;;;;;;26.23;7.55;;;;;;;;;;4437153;32;19984;-77
2023/05/17 00:54:52;;;;;;;28.27;6.75;;;;;;;;;;4434369;32;20489;-76
2023/05/17 00:57:17;;;;;;;20.98;6.55;;;;;;;;;;4436341;32;20022;-76
2023/05/17 00:59:42;;;;;;;;;;;;;;;;;;4436818;32;20073;-76
2023/05/17 01:02:08;;;;;;;18.75;6.05;;;;;;;;;;4437284;32;19970;-76
2023/05/17 01:04:33;;;;;;;;;;;;;;;;;;4435567;32;20157;-76
2023/05/17 01:06:58;;;;;;;24.92;7.07;;;;;;;;;;4437302;32;19984;-77
2023/05/17 01:09:23;;;;;;;;;;;;;;;;;;4437295;32;20052;-76
2023/05/17 01:12:06;;;;;;;19.52;6.45;;;;;;;;;;4436129;32;19937;-76
2023/05/17 01:14:41;;;;;;;32.38;7.05;;;;;;;;;;4437628;32;20125;-76
2023/05/17 01:17:12;;;;;;;26.83;7.45;;;;;;;;;;4435735;32;20053;-76
2023/05/17 01:19:37;;;;;;;24.98;7.93;;;;;;;;;;4436675;32;20080;-76
2023/05/17 01:22:02;;;;;;;;;;;;;;;;;;4436264;32;20446;-76
2023/05/17 01:24:32;;;;;;;21.62;7.15;;;;;;;;;;4432287;32;19944;-76
2023/05/17 01:26:58;;;;;;;24.17;6.50;;;;;;;;;;4420391;32;20087;-76
2023/05/17 01:29:24;;;;;;;;;;;;;;;;;;4420797;32;20469;-76
2023/05/17 01:31:50;;;;;;;19.62;6.70;;;;;;;;;;4419952;32;19961;-76
2023/05/17 01:34:15;;;;;;;;;;;;;;;;;;4421688;32;20025;-76
2023/05/17 01:36:41;;;;;;;20.95;6.97;;;;;;;;;;4421188;32;19984;-76
2023/05/17 01:39:07;;;;;;;17.27;6.07;;;;;;;;;;4421985;32;20050;-76
2023/05/17 01:41:33;;;;;;;;;;;;;;;;;;4420857;32;20494;-76
2023/05/17 01:44:01;;;;;;;23.73;6.50;;;;;;;;;;4420175;32;19956;-76
2023/05/17 01:46:39;;;;;;;30.00;7.07;;;;;;;;;;4424596;32;20427;-76
2023/05/17 01:49:20;;;;;;;22.33;7.15;;;;;;;;;;4424227;32;20420;-76
2023/05/17 01:52:01;;;;;;;27.00;6.47;;;;;;;;;;4424538;32;20030;-76
2023/05/17 01:54:29;;;;;;;22.40;7.87;;;;;;;;;;4423899;32;20021;-76
2023/05/17 01:56:56;;;;;;;24.75;7.37;;;;;;;;;;4424428;32;20030;-77
2023/05/17 01:59:24;;;;;;;19.80;6.55;;;;;;;;;;4422768;32;20084;-76
2023/05/17 02:01:51;;;;;;;23.48;6.93;;;;;;;;;;4424578;32;20057;-76
2023/05/17 02:04:17;;;;;;;32.05;7.82;;;;;;;;;;4423127;32;20364;-76
2023/05/17 02:06:42;;;;;;;23.27;7.57;;;;;;;;;;4423926;32;20065;-76
2023/05/17 02:09:07;;;;;;;;;;;;;;;;;;4425328;32;20072;-77
2023/05/17 02:11:34;;;;;;;30.40;7.68;;;;;;;;;;4422730;32;20026;-76
2023/05/17 02:13:59;;;;;;;19.08;7.43;;;;;;;;;;4424416;32;20090;-76
2023/05/17 02:16:25;;;;;;;23.25;6.80;;;;;;;;;;4422447;32;20026;-76
2023/05/17 02:18:50;;;;;;;;;;;;;;;;;;4424399;32;20152;-76
2023/05/17 02:21:17;;;;;;;18.05;6.15;;;;;;;;;;4424087;32;20356;-76
2023/05/17 02:23:42;;;;;;;24.83;7.43;;;;;;;;;;4422502;32;20106;-76
2023/05/17 02:26:07;;;;;;;32.73;7.50;;;;;;;;;;4422830;32;20427;-76
2023/05/17 02:28:32;;;;;;;;;;;;;;;;;;4424107;32;20157;-76
2023/05/17 02:30:57;;;;;;;19.55;6.28;;;;;;;;;;4432339;32;20321;-76
2023/05/17 02:33:23;;;;;;;;;;;;;;;;;;4437650;32;20147;-76
2023/05/17 02:35:48;;;;;;;24.92;7.05;;;;;;;;;;4438776;32;19972;-76
2023/05/17 02:38:14;;;;;;;21.90;8.23;;;;;;;;;;4437466;32;20034;-76
2023/05/17 02:40:39;;;;;;;;;;;;;;;;;;4439601;32;20060;-76
2023/05/17 02:43:04;;;;;;;19.42;7.20;;;;;;;;;;4438057;32;19933;-76
2023/05/17 02:45:30;;;;;;;24.20;7.65;;;;;;;;;;4439420;32;20433;-77
2023/05/17 02:47:55;;;;;;;;;;;;;;;;;;4437925;32;20052;-76
2023/05/17 02:50:20;;;;;;;21.50;7.05;;;;;;;;;;4437569;32;19956;-76
2023/05/17 02:52:45;;;;;;;29.27;7.43;;;;;;;;;;4437773;32;20048;-76
2023/05/17 02:55:10;;;;;;;20.85;6.25;;;;;;;;;;4435997;32;20026;-76
2023/05/17 02:57:36;;;;;;;20.40;6.85;;;;;;;;;;4438486;32;20123;-76
2023/05/17 03:00:01;;;;;;;;;;;;;;;;;;4438393;32;20076;-76
2023/05/17 03:02:26;;;;;;;23.75;7.45;;;;;;;;;;4435956;32;19951;-76
2023/05/17 03:04:51;;;;;;;25.30;8.05;;;;;;;;;;4438653;32;20455;-76
2023/05/17 03:07:16;;;;;;;26.60;7.75;;;;;;;;;;4437008;32;20026;-76
2023/05/17 03:09:42;;;;;;;;;;;;;;;;;;4438319;32;20427;-76
2023/05/17 03:12:07;;;;;;;18.33;7.03;;;;;;;;;;4435607;32;19969;-75
2023/05/17 03:14:32;;;;;;;;;;;;;;;;;;4438955;32;20065;-76
2023/05/17 03:16:57;;;;;;;22.92;9.38;;;;;;;;;;4437352;32;19932;-76
2023/05/17 03:19:22;;;;;;;21.87;7.37;;;;;;;;;;4435501;32;20136;-76
2023/05/17 03:21:47;;;;;;;;;;;;;;;;;;4438898;32;20026;-75
2023/05/17 03:24:13;;;;;;;23.25;8.20;;;;;;;;;;4437309;32;19975;-76
2023/05/17 03:26:38;;;;;;;16.83;8.27;;;;;;;;;;4438456;32;20046;-75
2023/05/17 03:29:04;;;;;;;;;;;;;;;;;;4436954;32;20406;-76
2023/05/17 03:31:29;;;;;;;26.35;7.30;;;;;;;;;;4438773;32;20347;-76
2023/05/17 03:33:54;;;;;;;21.70;6.50;;;;;;;;;;4436984;32;20090;-76
2023/05/17 03:36:19;;;;;;;;;;;;;;;;;;4438475;32;20038;-75
2023/05/17 03:38:45;;;;;;;20.25;7.10;;;;;;;;;;4436472;32;20283;-76
2023/05/17 03:41:10;;;;;;;18.33;7.57;;;;;;;;;;4438725;32;20056;-76
2023/05/17 03:43:35;;;;;;;32.45;8.27;;;;;;;;;;4437591;32;20024;-75
2023/05/17 03:46:01;;;;;;;25.00;9.30;;;;;;;;;;4436720;32;20030;-76
2023/05/17 03:48:26;;;;;;;;;;;;;;;;;;4438094;32;20052;-75
2023/05/17 03:50:51;;;;;;;15.60;6.87;;;;;;;;;;4435101;32;19937;-75
2023/05/17 03:53:16;;;;;;;19.33;7.93;;;;;;;;;;4438363;32;20025;-77
2023/05/17 03:55:41;;;;;;;27.42;8.32;;;;;;;;;;4437969;32;20026;-75
2023/05/17 03:58:07;;;;;;;;;;;;;;;;;;4436713;32;20442;-75
2023/05/17 04:00:32;;;;;;;25.77;7.07;;;;;;;;;;4438359;32;19937;-76
2023/05/17 04:02:57;;;;;;;;;;;;;;;;;;4438843;32;20510;-77
2023/05/17 04:05:22;;;;;;;23.70;6.05;;;;;;;;;;4435571;32;19968;-76
2023/05/17 04:07:48;;;;;;;14.75;5.25;;;;;;;;;;4437992;32;20056;-76
2023/05/17 04:10:13;;;;;;;;;;;;;;;;;;4437194;32;20367;-75
2023/05/17 04:12:38;;;;;;;23.38;5.50;;;;;;;;;;4436976;32;19937;-75
2023/05/17 04:15:03;;;;;;;;;;;;;;;;;;4436657;32;20116;-75
2023/05/17 04:17:28;;;;;;;20.52;5.12;;;;;;;;;;4437654;32;19951;-75
2023/05/17 04:19:53;;;;;;;22.58;5.80;;;;;;;;;;4436046;32;20025;-75
2023/05/17 04:22:19;;;;;;;;;;;;;;;;;;4437657;32;20029;-74
2023/05/17 04:24:44;;;;;;;18.87;4.55;;;;;;;;;;4437404;32;19952;-76
2023/05/17 04:27:09;;;;;;;21.90;5.28;;;;;;;;;;4435147;32;20082;-76
2023/05/17 04:29:35;;;;;;;15.50;4.95;;;;;;;;;;4434703;32;20074;-75
2023/05/17 04:32:00;;;;;;;16.80;5.62;;;;;;;;;;4435441;32;20068;-76
2023/05/17 04:34:25;;;;;;;19.20;5.32;;;;;;;;;;4439046;32;20025;-75
2023/05/17 04:36:51;;;;;;;18.80;5.32;;;;;;;;;;4438579;32;20060;-76
2023/05/17 04:39:17;;;;;;;24.73;5.47;;;;;;;;;;4436647;32;20053;-76
2023/05/17 04:41:42;;;;;;;21.77;4.90;;;;;;;;;;4436905;32;20183;-76
2023/05/17 04:44:07;;;;;;;21.95;4.87;;;;;;;;;;4437330;32;20100;-76
2023/05/17 04:46:32;;;;;;;20.50;5.25;;;;;;;;;;4434405;32;20398;-75
2023/05/17 04:48:57;;;;;;;;;;;;;;;;;;4434966;32;20067;-75
2023/05/17 04:51:23;;;;;;;18.50;5.32;;;;;;;;;;4435705;32;19940;-75
2023/05/17 04:53:48;;;;;;;19.52;5.45;;;;;;;;;;4436041;32;20038;-74
2023/05/17 04:56:13;;;;;;;21.05;4.78;;;;;;;;;;4435797;32;20371;-75
2023/05/17 04:58:38;;;;;;;;;;;;;;;;;;4437073;32;20053;-75
2023/05/17 05:01:04;;;;;;;16.33;4.43;;;;;;;;;;4436827;32;19991;-76
2023/05/17 05:03:29;;;;;;;18.15;5.03;;;;;;;;;;4435657;32;20025;-75
2023/05/17 05:05:54;;;;;;;;;;;;;;;;;;4435692;32;20021;-75
2023/05/17 05:08:19;;;;;;;28.00;5.50;;;;;;;;;;4436270;32;19998;-75
2023/05/17 05:10:44;;;;;;;;;;;;;;;;;;4436286;32;20163;-75
2023/05/17 05:13:10;;;;;;;23.73;6.18;;;;;;;;;;4434087;32;19936;-75
2023/05/17 05:15:35;;;;;;;;;;;;;;;;;;4434573;32;20042;-75
2023/05/17 05:18:00;;;;;;;23.33;6.53;;;;;;;;;;4435729;32;19937;-76
2023/05/17 05:20:25;;;;;;;;;;;;;;;;;;4436626;32;20197;-76
2023/05/17 05:22:50;;;;;;;31.30;5.68;;;;;;;;;;4438321;32;19981;-74
2023/05/17 05:25:16;;;;;;;22.37;4.78;;;;;;;;;;4441664;32;20465;-76
2023/05/17 05:27:41;;;;;;;15.48;4.40;;;;;;;;;;4439750;32;20052;-74
2023/05/17 05:30:06;;;;;;;;;;;;;;;;;;4440177;32;20340;-75
2023/05/17 05:32:31;;;;;;;20.83;5.03;;;;;;;;;;4440038;32;19949;-75
2023/05/17 05:34:56;;;;;;;;;;;;;;;;;;4439439;32;20423;-76
2023/05/17 05:37:22;;;;;;;20.20;4.97;;;;;;;;;;4436892;32;19937;-76
2023/05/17 05:39:47;;;;;;;24.02;4.95;;;;;;;;;;4439244;32;20037;-75
2023/05/17 05:42:12;;;;;;;;;;;;;;;;;;4437576;32;20065;-77
2023/05/17 05:44:37;;;;;;;18.73;4.40;;;;;;;;;;4437825;32;19938;-78
2023/05/17 05:47:03;;;;;;;;;;;;;;;;;;4438135;32;20495;-75
2023/05/17 05:49:28;;;;;;;19.55;4.80;;;;;;;;;;4437522;32;19941;-75
2023/05/17 05:51:53;;;;;;;24.12;5.37;;;;;;;;;;4437513;32;20471;-76
2023/05/17 05:54:18;;;;;;;;;;;;;;;;;;4437261;32;20056;-77
2023/05/17 05:56:43;;;;;;;19.17;4.80;;;;;;;;;;4438474;32;19968;-77
2023/05/17 05:59:08;;;;;;;18.70;4.93;;;;;;;;;;4438854;32;20041;-76
2023/05/17 06:01:33;;;;;;;;;;;;;;;;;;4440585;32;20034;-77
2023/05/17 06:03:59;;;;;;;16.98;4.68;;;;;;;;;;4437555;32;20097;-77
2023/05/17 06:06:24;;;;;;;14.18;4.22;;;;;;;;;;4437085;32;20097;-77
2023/05/17 06:08:49;;;;;;;28.52;5.82;;;;;;;;;;4439124;32;20029;-77
2023/05/17 06:11:14;;;;;;;;;;;;;;;;;;4440111;32;20350;-77
2023/05/17 06:13:39;;;;;;;18.83;4.95;;;;;;;;;;4441035;32;19936;-77
2023/05/17 06:16:05;;;;;;;;;;;;;;;;;;4437496;32;20042;-77
2023/05/17 06:18:30;;;;;;;16.87;4.72;;;;;;;;;;4439074;32;20358;-76
2023/05/17 06:20:55;;;;;;;;;;;;;;;;;;4439156;32;20125;-76
2023/05/17 06:23:20;;;;;;;24.25;4.80;;;;;;;;;;4437287;32;19933;-76
2023/05/17 06:25:45;;;;;;;22.13;5.28;;;;;;;;;;4437309;32;20085;-77
2023/05/17 06:28:11;;;;;;;16.83;4.45;;;;;;;;;;4437733;32;20470;-77
2023/05/17 06:30:36;;;;;;;;;;;;;;;;;;4438468;32;20076;-76
2023/05/17 06:33:01;;;;;;;13.70;3.72;;;;;;;;;;4437448;32;20340;-77
2023/05/17 06:35:26;;;;;;;;;;;;;;;;;;4436995;32;20569;-77
2023/05/17 06:37:51;;;;;;;18.62;4.53;;;;;;;;;;4438164;32;19944;-77
2023/05/17 06:40:16;;;;;;;;;;;;;;;;;;4438104;32;20122;-78
2023/05/17 06:42:41;;;;;;;16.95;3.97;;;;;;;;;;4437737;32;19937;-78
2023/05/17 06:45:07;;;;;;;19.42;4.43;;;;;;;;;;4437389;32;20042;-77
2023/05/17 06:47:32;;;;;;;18.23;4.90;;;;;;;;;;4436847;32;20055;-77
2023/05/17 06:49:57;;;;;;;;;;;;;;;;;;4435965;32;20462;-77
2023/05/17 06:52:22;;;;;;;19.48;4.37;;;;;;;;;;4436089;32;20243;-77
2023/05/17 06:54:47;;;;;;;15.32;3.60;;;;;;;;;;4437748;32;20026;-77
2023/05/17 06:57:13;;;;;;;16.37;4.15;;;;;;;;;;4437458;32;20110;-77
2023/05/17 06:59:38;;;;;;;17.87;4.50;;;;;;;;;;4436403;32;20116;-76
2023/05/17 07:02:03;;;;;;;16.00;4.30;;;;;;;;;;4436330;32;20033;-77
2023/05/17 07:04:28;;;;;;;;;;;;;;;;;;4436830;32;20041;-77
2023/05/17 07:06:54;;;;;;;14.85;4.30;;;;;;;;;;4435839;32;20322;-77
2023/05/17 07:09:19;;;;;;;;;;;;;;;;;;4435903;32;20121;-78
2023/05/17 07:11:44;;;;;;;30.12;5.40;;;;;;;;;;4436015;32;19960;-76
2023/05/17 07:14:10;;;;;;;17.05;4.37;;;;;;;;;;4436845;32;20076;-76
2023/05/17 07:16:35;;;;;;;20.88;5.10;;;;;;;;;;4437879;32;20049;-77
2023/05/17 07:19:00;;;;;;;;;;;;;;;;;;4440604;32;20072;-77
2023/05/17 07:21:25;;;;;;;10.85;3.50;;;;;;;;;;4435209;32;19933;-76
2023/05/17 07:23:50;;;;;;;16.33;3.75;;;;;;;;;;4438151;32;20048;-77
2023/05/17 07:26:19;;;;;;;9.63;3.17;;;;;;;;;;4436567;32;20029;-78
2023/05/17 07:28:44;;;;;;;10.57;3.50;;;;;;;;;;4436794;32;20056;-77
2023/05/17 07:31:09;;;;;;;15.13;3.95;;;;;;;;;;4435294;32;20026;-78
2023/05/17 07:33:34;;;;;;;;;;;;;;;;;;4438314;32;20033;-77
2023/05/17 07:36:00;;;;;;;11.88;3.95;;;;;;;;;;4435990;32;19981;-77
2023/05/17 07:38:25;;;;;;;;;;;;;;;;;;4437883;32;20034;-78
2023/05/17 07:40:50;;;;;;;11.63;3.10;;;;;;;;;;4434949;32;20030;-78
2023/05/17 07:43:15;;;;;;;13.93;3.50;;;;;;;;;;4436481;32;20049;-78
2023/05/17 07:45:40;;;;;;;;;;;;;;;;;;4436477;32;20171;-77
2023/05/17 07:48:05;;;;;;;15.68;3.92;;;;;;;;;;4436016;32;20358;-77
2023/05/17 07:50:31;;;;;;;14.98;3.33;;;;;;;;;;4437391;32;20033;-77
2023/05/17 07:52:57;;;;;;;11.60;2.83;;;;;;;;;;4436218;32;20042;-78
2023/05/17 07:55:22;;;;;;;9.48;3.25;;;;;;;;;;4436145;32;20025;-78
2023/05/17 07:57:47;;;;;;;;;;;;;;;;;;4436005;32;20109;-78
2023/05/17 08:00:12;;;;;;;12.77;3.50;;;;;;;;;;4436449;32;19937;-78
2023/05/17 08:02:38;;;;;;;;;;;;;;;;;;4436058;32;20136;-77
2023/05/17 08:05:04;;;;;;;10.70;3.40;;;;;;;;;;4437441;32;19976;-78
2023/05/17 08:07:29;;;;;;;9.88;3.05;;;;;;;;;;4437673;32;20171;-78
2023/05/17 08:09:54;;;;;;;12.25;3.15;;;;;;;;;;4436805;32;20026;-76
2023/05/17 08:12:19;;;;;;;;;;;;;;;;;;4438586;32;20090;-77
2023/05/17 08:14:44;;;;;;;14.73;3.40;;;;;;;;;;4438003;32;19947;-77
2023/05/17 08:17:10;;;;;;;;;;;;;;;;;;4436992;32;20213;-77
2023/05/17 08:19:35;;;;;;;7.43;3.83;;;;;;;;;;4434382;32;20015;-75
2023/05/17 08:22:01;;;;;;;10.43;3.60;;;;;;;;;;4434726;32;20512;-76
2023/05/17 08:24:26;;;;;;;13.05;3.37;;;;;;;;;;4434842;32;20068;-76
2023/05/17 08:26:51;;;;;;;10.50;3.33;;;;;;;;;;4437811;32;20082;-77
2023/05/17 08:29:16;;;;;;;11.00;2.92;;;;;;;;;;4437785;32;20052;-77
2023/05/17 08:31:42;;;;;;;18.50;3.50;;;;;;;;;;4434609;32;20026;-78
2023/05/17 08:34:07;;;;;;;10.32;3.03;;;;;;;;;;4438138;32;20129;-78
2023/05/17 08:36:32;;;;;;;16.75;3.95;;;;;;;;;;4439143;32;20056;-78
2023/05/17 08:38:58;;;;;;;15.43;4.07;;;;;;;;;;4436314;32;20060;-78
2023/05/17 08:41:23;;;;;;;11.85;3.67;;;;;;;;;;4436742;32;20446;-78
2023/05/17 08:43:48;;;;;;;10.77;3.22;;;;;;;;;;4435242;32;20033;-78
2023/05/17 08:46:14;;;;;;;;;;;;;;;;;;4437544;32;20034;-77
2023/05/17 08:48:42;;;;;;;10.35;3.67;;;;;;;;;;4435818;32;19936;-77
2023/05/17 08:51:08;;;;;;;11.80;3.80;;;;;;;;;;4435635;32;20030;-78
2023/05/17 08:53:34;;;;;;;11.40;3.03;;;;;;;;;;4435521;32;20475;-78
2023/05/17 08:56:00;;;;;;;11.75;3.70;;;;;;;;;;4436850;32;20025;-77
2023/05/17 08:58:25;;;;;;;;;;;;;;;;;;4435850;32;20045;-78
2023/05/17 09:00:51;;;;;;;10.77;3.95;;;;;;;;;;4435470;32;19985;-77
2023/05/17 09:03:17;;;;;;;10.10;3.67;;;;;;;;;;4434123;32;20038;-78
2023/05/17 09:05:43;;;;;;;10.07;2.95;;;;;;;;;;4434742;32;20109;-79
2023/05/17 09:08:12;;;;;;;8.43;2.65;;;;;;;;;;4435605;32;20059;-78
2023/05/17 09:10:37;;;;;;;8.50;2.87;;;;;;;;;;4435548;32;20025;-78
2023/05/17 09:13:03;;;;;;;10.68;3.55;;;;;;;;;;4435229;32;20076;-78
2023/05/17 09:15:29;;;;;;;;;;;;;;;;;;4435906;32;20056;-78
2023/05/17 09:17:55;;;;;;;11.27;3.40;;;;;;;;;;4434773;32;19955;-77
2023/05/17 09:20:21;;;;;;;;;;;;;;;;;;4436487;32;20042;-78
2023/05/17 09:22:47;;;;;;;16.37;3.70;;;;;;;;;;4435735;32;19962;-77
2023/05/17 09:25:17;;;;;;;16.00;3.45;;;;;;;;;;4435449;32;20078;-77
2023/05/17 09:27:43;;;;;;;14.10;3.95;;;;;;;;;;4435387;32;20038;-77
2023/05/17 09:30:09;;;;;;;13.07;3.50;;;;;;;;;;4434941;32;20106;-77
2023/05/17 09:32:34;;;;;;;10.32;4.10;;;;;;;;;;4435746;32;20026;-76
2023/05/17 09:35:01;;;;;;;10.18;3.10;;;;;;;;;;4436729;32;20109;-76
2023/05/17 09:37:26;;;;;;;11.73;3.90;;;;;;;;;;4436019;32;20100;-76
2023/05/17 09:39:53;;;;;;;12.37;3.55;;;;;;;;;;4435844;32;20078;-76
2023/05/17 09:42:25;;;;;;;11.95;3.83;;;;;;;;;;4435608;32;20054;-77
2023/05/17 09:44:56;;;;;;;15.23;3.70;;;;;;;;;;4436291;32;20320;-75
2023/05/17 09:47:33;;;;;;;13.73;3.62;;;;;;;;;;4436230;32;20051;-77
2023/05/17 09:50:01;;;;;;;9.80;3.80;;;;;;;;;;4439247;32;20038;-77
2023/05/17 09:52:30;;;;;;;13.50;3.25;;;;;;;;;;4436547;32;20060;-77
2023/05/17 09:54:56;;;;;;;11.98;3.53;;;;;;;;;;4436618;32;20094;-78
2023/05/17 09:57:24;;;;;;;13.30;3.85;;;;;;;;;;4437317;32;20085;-77
2023/05/17 09:59:49;;;;;;;12.77;3.70;;;;;;;;;;4436654;32;20033;-76
2023/05/17 10:02:22;;;;;;;14.52;3.80;;;;;;;;;;4437210;32;20052;-78
2023/05/17 10:04:51;;;;;;;19.35;5.15;;;;;;;;;;4430562;32;20494;-78
2023/05/17 10:07:20;;;;;;;11.55;3.78;;;;;;;;;;4422554;32;20018;-77
2023/05/17 10:09:48;;;;;;;11.12;3.83;;;;;;;;;;4422564;32;20399;-77
2023/05/17 10:12:17;;;;;;;12.00;4.12;;;;;;;;;;4422329;32;20065;-77
2023/05/17 10:14:43;;;;;;;10.02;3.28;;;;;;;;;;4424826;32;20138;-78
2023/05/17 10:17:09;;;;;;;9.27;3.22;;;;;;;;;;4437536;32;20017;-78
2023/05/17 10:19:34;;;;;;;14.35;3.60;;;;;;;;;;4437589;32;20371;-78
2023/05/17 10:22:01;;;;;;;8.43;4.30;;;;;;;;;;4436216;32;20018;-77
2023/05/17 10:24:29;;;;;;;12.13;3.78;;;;;;;;;;4437237;32;20117;-76
2023/05/17 10:26:54;;;;;;;10.57;4.00;;;;;;;;;;4437381;32;20021;-76
2023/05/17 10:29:20;;;;;;;13.75;3.67;;;;;;;;;;4437625;32;20036;-77
2023/05/17 10:31:45;;;;;;;13.88;3.83;;;;;;;;;;4438808;32;20017;-76
2023/05/17 10:34:11;;;;;;;12.30;3.70;;;;;;;;;;4437209;32;20088;-77
2023/05/17 10:36:36;;;;;;;10.88;3.75;;;;;;;;;;4435581;32;20017;-77
2023/05/17 10:39:01;;;;;;;10.10;3.35;;;;;;;;;;4437966;32;20412;-78
2023/05/17 10:41:29;;;;;;;12.27;3.85;;;;;;;;;;4436338;32;20022;-77
2023/05/17 10:43:55;;;;;;;10.30;3.55;;;;;;;;;;4437391;32;20407;-78
2023/05/17 10:46:21;;;;;;;13.20;4.28;;;;;;;;;;4437519;32;20142;-77
2023/05/17 10:48:50;;;;;;;14.25;4.12;;;;;;;;;;4437012;32;20052;-77
2023/05/17 10:51:22;;;;;;;9.80;4.00;;;;;;;;;;4436147;32;20056;-77
2023/05/17 10:54:06;;;;;;;10.63;3.50;;;;;;;;;;4437295;32;20409;-77
2023/05/17 10:56:32;;;;;;;13.52;3.62;;;;;;;;;;4438918;32;20377;-77
2023/05/17 10:59:13;;;;;;;8.93;3.60;;;;;;;;;;4436680;32;20038;-77
2023/05/17 11:01:57;;;;;;;11.73;3.75;;;;;;;;;;4436979;32;20030;-75
2023/05/17 11:04:33;;;;;;;8.90;3.30;;;;;;;;;;4438147;32;20033;-76
2023/05/17 11:07:16;;;;;;;11.60;3.85;;;;;;;;;;4436662;32;20093;-76
2023/05/17 11:09:45;;;;;;;12.27;3.55;;;;;;;;;;4434304;32;20017;-76
2023/05/17 11:12:11;;;;;;;11.75;3.90;;;;;;;;;;4437251;32;20366;-76
2023/05/17 11:14:45;;;;;;;11.32;4.18;;;;;;;;;;4436106;32;20089;-75
2023/05/17 11:17:14;;;;;;;10.80;4.05;;;;;;;;;;4438013;32;20385;-76
2023/05/17 11:19:55;;;;;;;11.82;3.72;;;;;;;;;;4436442;32;20094;-76
2023/05/17 11:22:24;;;;;;;9.00;4.37;;;;;;;;;;4437491;32;20021;-76
2023/05/17 11:24:50;;;;;;;9.20;3.85;;;;;;;;;;4435192;32;20030;-76
2023/05/17 11:27:17;;;;;;;12.57;4.97;;;;;;;;;;4434884;32;20436;-76
2023/05/17 11:29:45;;;;;;;13.13;4.60;;;;;;;;;;4434187;32;20018;-74
2023/05/17 11:32:10;;;;;;;15.35;4.07;;;;;;;;;;4436528;32;20048;-77
2023/05/17 11:34:36;;;;;;;11.30;3.92;;;;;;;;;;4437401;32;20097;-77
2023/05/17 11:37:03;;;;;;;14.35;4.62;;;;;;;;;;4436651;32;20044;-75
2023/05/17 11:39:29;;;;;;;7.45;4.35;;;;;;;;;;4437452;32;20041;-76
2023/05/17 11:41:55;;;;;;;17.92;4.47;;;;;;;;;;4421802;32;20064;-77
2023/05/17 11:44:30;;;;;;;11.27;4.70;;;;;;;;;;4436760;32;20067;-76
2023/05/17 11:47:02;;;;;;;15.32;4.97;;;;;;;;;;4437168;32;20079;-76
2023/05/17 11:49:29;;;;;;;10.20;4.85;;;;;;;;;;4436247;32;20048;-76
2023/05/17 11:51:54;;;;;;;18.05;8.90;;;;;;;;;;4435668;32;20065;-76
2023/05/17 11:54:23;;;;;;;11.02;5.03;;;;;;;;;;4435848;32;20419;-76
2023/05/17 11:56:48;;;;;;;16.58;6.68;;;;;;;;;;4435548;32;20384;-76
2023/05/17 11:59:18;;;;;;;11.77;4.70;;;;;;;;;;4436372;32;20410;-76
2023/05/17 12:01:44;;;;;;;11.48;5.10;;;;;;;;;;4436365;32;20040;-76
2023/05/17 12:04:10;;;;;;;13.13;5.18;;;;;;;;;;4434189;32;20128;-76
2023/05/17 12:06:35;;;;;;;15.55;4.93;;;;;;;;;;4437249;32;20029;-76
2023/05/17 12:09:02;;;;;;;17.67;4.68;;;;;;;;;;4435583;32;20070;-76
2023/05/17 12:11:27;;;;;;;13.75;4.82;;;;;;;;;;4434838;32;20066;-77
2023/05/17 12:13:52;;;;;;;14.77;5.60;;;;;;;;;;4436879;32;20041;-74
2023/05/17 12:16:20;;;;;;;14.80;5.35;;;;;;;;;;4436410;32;20090;-77
2023/05/17 12:18:49;;;;;;;20.42;17.45;;;;;;;;;;4434478;32;20085;-76
2023/05/17 12:21:15;;;;;;;18.60;5.72;;;;;;;;;;4435635;32;20062;-76
2023/05/17 12:23:44;;;;;;;12.73;5.75;;;;;;;;;;4435730;32;20026;-75
2023/05/17 12:26:11;;;;;;;13.20;7.72;;;;;;;;;;4435908;32;20442;-76
2023/05/17 12:28:37;;;;;;;14.10;6.22;;;;;;;;;;4435135;32;20401;-76
2023/05/17 12:31:04;;;;;;;15.25;5.93;;;;;;;;;;4436159;32;20054;-78
2023/05/17 12:33:30;;;;;;;10.45;5.20;;;;;;;;;;4436763;32;20124;-76
2023/05/17 12:35:55;;;;;;;10.27;4.60;;;;;;;;;;4437863;32;20099;-75
2023/05/17 12:38:21;;;;;;;9.38;4.95;;;;;;;;;;4435511;32;20037;-74
2023/05/17 12:40:46;;;;;;;11.35;4.55;;;;;;;;;;4435118;32;20351;-75
2023/05/17 12:43:11;;;;;;;13.27;4.47;;;;;;;;;;4434784;32;20052;-77
2023/05/17 12:45:39;;;;;;;17.73;5.37;;;;;;;;;;4437287;32;20018;-77
2023/05/17 12:48:05;;;;;;;12.55;4.55;;;;;;;;;;4437568;32;20094;-76
2023/05/17 12:50:31;;;;;;;12.20;5.15;;;;;;;;;;4439152;32;20049;-73
2023/05/17 12:52:56;;;;;;;11.32;6.72;;;;;;;;;;4436776;32;20018;-74
2023/05/17 12:55:22;;;;;;;7.30;4.97;;;;;;;;;;4436932;32;20048;-77
2023/05/17 12:57:48;;;;;;;8.70;4.47;;;;;;;;;;4435245;32;20056;-76
2023/05/17 13:00:13;;;;;;;11.18;5.78;;;;;;;;;;4436253;32;20096;-76
2023/05/17 13:02:40;;;;;;;13.25;6.07;;;;;;;;;;4435577;32;20437;-75
2023/05/17 13:05:23;;;;;;;16.73;7.95;;;;;;;;;;4437262;32;20164;-76
2023/05/17 13:07:49;;;;;;;22.20;18.55;;;;;;;;;;4436940;32;20068;-75
2023/05/17 13:10:20;;;;;;;12.13;4.85;;;;;;;;;;4435052;32;20018;-76
2023/05/17 13:12:55;;;;;;;11.00;5.07;;;;;;;;;;4434024;32;20033;-77
2023/05/17 13:15:25;;;;;;;11.57;5.10;;;;;;;;;;4436381;32;20014;-76
2023/05/17 13:17:50;;;;;;;11.52;4.75;;;;;;;;;;4435768;32;20041;-76
2023/05/17 13:20:16;;;;;;;18.00;10.95;;;;;;;;;;4435574;32;20473;-76
2023/05/17 13:22:45;;;;;;;8.90;5.53;;;;;;;;;;4434815;32;20297;-76
2023/05/17 13:25:10;;;;;;;13.07;8.73;;;;;;;;;;4433432;32;20048;-76
2023/05/17 13:27:35;;;;;;;15.85;5.72;;;;;;;;;;4435157;32;20021;-76
2023/05/17 13:30:01;;;;;;;26.00;23.10;;;;;;;;;;4436612;32;20022;-76
2023/05/17 13:32:26;;;;;;;59.20;54.03;;;;;;;;;;4436431;32;20038;-76
2023/05/17 13:34:51;;;;;;;12.60;5.18;;;;;;;;;;4435654;32;20332;-76
2023/05/17 13:37:16;;;;;;;17.05;15.27;;;;;;;;;;4437702;32;20018;-74
2023/05/17 13:39:42;;;;;;;10.70;5.47;;;;;;;;;;4436035;32;20025;-77
2023/05/17 13:42:07;;;;;;;10.68;5.87;;;;;;;;;;4437268;32;20415;-76
2023/05/17 13:44:32;;;;;;;13.60;4.95;;;;;;;;;;4438542;32;20022;-75
2023/05/17 13:46:58;;;;;;;9.65;5.20;;;;;;;;;;4439878;32;20060;-75
2023/05/17 13:49:23;;;;;;;17.20;10.55;;;;;;;;;;4438643;32;20366;-76
2023/05/17 13:51:48;;;;;;;17.48;15.65;;;;;;;;;;4437316;32;20395;-76
2023/05/17 13:54:13;;;;;;;16.17;8.98;;;;;;;;;;4439288;32;20121;-76
2023/05/17 13:56:38;;;;;;;38.67;35.00;;;;;;;;;;4438289;32;20033;-76
2023/05/17 13:59:04;;;;;;;14.95;6.10;;;;;;;;;;4437284;32;20038;-76
2023/05/17 14:01:29;;;;;;;12.73;5.57;;;;;;;;;;4437918;32;20045;-76
2023/05/17 14:03:54;;;;;;;9.20;5.30;;;;;;;;;;4438000;32;20105;-76
2023/05/17 14:06:19;;;;;;;11.80;5.37;;;;;;;;;;4438753;32;20056;-76
2023/05/17 14:08:45;;;;;;;11.73;5.37;;;;;;;;;;4437498;32;20030;-77
2023/05/17 14:11:10;;;;;;;14.15;5.65;;;;;;;;;;4437355;32;20117;-76
2023/05/17 14:13:36;;;;;;;11.65;5.60;;;;;;;;;;4437487;32;20135;-76
2023/05/17 14:16:01;;;;;;;11.10;6.50;;;;;;;;;;4436413;32;20025;-75
2023/05/17 14:18:26;;;;;;;11.85;5.18;;;;;;;;;;4437720;32;20118;-76
2023/05/17 14:20:52;;;;;;;13.23;5.30;;;;;;;;;;4439222;32;20048;-76
2023/05/17 14:23:17;;;;;;;10.38;5.57;;;;;;;;;;4437459;32;20162;-75
2023/05/17 14:25:42;;;;;;;8.10;4.57;;;;;;;;;;4436349;32;20022;-74
2023/05/17 14:28:08;;;;;;;10.35;6.25;;;;;;;;;;4437708;32;20029;-76
2023/05/17 14:30:33;;;;;;;14.77;5.35;;;;;;;;;;4437818;32;20435;-76
2023/05/17 14:32:58;;;;;;;12.98;5.35;;;;;;;;;;4438096;32;20026;-76
2023/05/17 14:35:24;;;;;;;13.25;6.10;;;;;;;;;;4435825;32;20053;-75
2023/05/17 14:37:49;;;;;;;15.05;6.35;;;;;;;;;;4435741;32;20022;-76
2023/05/17 14:40:14;;;;;;;14.00;6.45;;;;;;;;;;4436487;32;20376;-76
2023/05/17 14:42:39;;;;;;;14.52;5.68;;;;;;;;;;4437908;32;20041;-75
2023/05/17 14:45:05;;;;;;;12.55;5.95;;;;;;;;;;4437122;32;20410;-76